Ottershaw, United Kingdom
Current Conditions -  °F | °C
As of 8:50 PM on Tuesday 21 Oct 2014 (Local Time) from EGLL Reporting Station
Few Clouds Few Clouds  
Wind Chill: 50°   Ceiling: Unl
Heat Index: 50°   Visibility: 6mi
Dew Point: 36°   Wind: 15mph
Humidity: 58%   Direction: 300°WNW
Pressure: 30.03"   Gusts: NA
Location:  51.36°N, 0.53°W
Report Text: EGLL 211950Z 30013KT 9999 FEW046 10/02 Q1017 NOSIG
Loading
Personal Weather Stations






























Interactive Weather Map
Tropical Storm Tracking
New forecast layout! Learn more

10-Day Weather Forecast

Advertisements
Track Severe Weather on mobile